createdAt,value
2022-08-16T00:00:06.236Z,97928.56
2022-08-16T00:05:48.568Z,97930.66
2022-08-16T00:11:15.187Z,97924.22
2022-08-16T00:17:05.838Z,97929.47
2022-08-16T00:22:20.732Z,97933.50
2022-08-16T00:27:47.150Z,97931.56
2022-08-16T00:33:09.391Z,97941.19
2022-08-16T00:38:40.876Z,97932.53
2022-08-16T00:44:11.133Z,97935.88
2022-08-16T00:49:44.430Z,97938.19
2022-08-16T00:55:08.508Z,97946.81
2022-08-16T01:00:32.047Z,97937.72
2022-08-16T01:05:54.054Z,97943.69
2022-08-16T01:11:16.855Z,97949.81
2022-08-16T01:16:41.949Z,97946.38
2022-08-16T01:22:47.645Z,97934.41
2022-08-16T01:28:01.911Z,97947.19
2022-08-16T01:33:24.740Z,97939.53
2022-08-16T01:38:57.120Z,97947.19
2022-08-16T01:44:19.548Z,97957.16
2022-08-16T01:50:40.642Z,97949.00
2022-08-16T01:55:24.681Z,97946.56
2022-08-16T02:00:46.633Z,97949.19
2022-08-16T02:06:08.888Z,97939.59
2022-08-16T02:11:48.412Z,97941.56
2022-08-16T02:17:13.397Z,97936.25
2022-08-16T02:22:36.838Z,97941.06
2022-08-16T02:27:59.219Z,97936.59
2022-08-16T02:33:43.785Z,97935.56
2022-08-16T02:39:08.309Z,97933.25
2022-08-16T02:44:31.281Z,97931.09
2022-08-16T02:50:03.196Z,97925.81
2022-08-16T02:55:40.826Z,97925.44
2022-08-16T03:01:03.492Z,97922.31
2022-08-16T03:06:42.054Z,97924.47
2022-08-16T03:12:05.592Z,97919.66
2022-08-16T03:17:32.174Z,97918.81
2022-08-16T03:22:54.293Z,97917.50
2022-08-16T03:28:18.799Z,97906.72
2022-08-16T03:33:40.598Z,97885.16
2022-08-16T03:39:03.439Z,97899.78
2022-08-16T03:44:44.293Z,97903.91
2022-08-16T03:50:25.571Z,97904.06
2022-08-16T03:55:48.190Z,97907.22
2022-08-16T04:01:14.487Z,97900.38
2022-08-16T04:06:37.920Z,97900.53
2022-08-16T04:11:59.892Z,97904.97
2022-08-16T04:17:21.667Z,97903.19
2022-08-16T04:22:48.845Z,97909.50
2022-08-16T04:28:51.845Z,97915.59
2022-08-16T04:33:59.222Z,97919.16
2022-08-16T04:39:24.054Z,97928.78
2022-08-16T04:44:53.529Z,97927.94
2022-08-16T04:50:23.489Z,97937.50
2022-08-16T04:55:53.102Z,97939.91
2022-08-16T05:01:15.561Z,97950.19
2022-08-16T05:06:42.350Z,97946.69
2022-08-16T05:12:07.047Z,97947.84
2022-08-16T05:17:32.944Z,97944.56
2022-08-16T05:22:54.780Z,97946.88
2022-08-16T05:28:18.600Z,97943.53
2022-08-16T05:33:42.110Z,97956.31
2022-08-16T05:39:07.793Z,97959.44
2022-08-16T05:44:30.365Z,97951.66
2022-08-16T05:49:53.321Z,97944.81
2022-08-16T05:55:15.092Z,97948.63
2022-08-16T06:00:37.137Z,97960.91
2022-08-16T06:06:00.828Z,97963.88
2022-08-16T06:11:25.530Z,97963.22
2022-08-16T06:16:50.928Z,97963.56
2022-08-16T06:22:37.388Z,97964.09
2022-08-16T06:27:57.449Z,97963.59
2022-08-16T06:33:22.559Z,97962.59
2022-08-16T06:38:55.365Z,97959.13
2022-08-16T06:44:20.845Z,97968.72
2022-08-16T06:49:43.415Z,97968.72
2022-08-16T06:55:16.715Z,97970.38
2022-08-16T07:00:38.934Z,97967.88
2022-08-16T07:06:05.776Z,97973.81
2022-08-16T07:11:48.181Z,97980.25
2022-08-16T07:17:11.490Z,97977.03
2022-08-16T07:22:52.456Z,97968.19
2022-08-16T07:28:20.983Z,97970.16
2022-08-16T07:33:52.842Z,97966.13
2022-08-16T07:39:16.357Z,97954.09
2022-08-16T07:44:49.196Z,97948.44
2022-08-16T07:50:56.628Z,97954.13
2022-08-16T07:55:56.717Z,97957.16
2022-08-16T08:01:18.624Z,97959.34
2022-08-16T08:06:46.889Z,97971.50
2022-08-16T08:12:32.224Z,97968.47
2022-08-16T08:17:54.924Z,97979.56
2022-08-16T08:23:17.825Z,97983.53
2022-08-16T08:28:39.800Z,97984.66
2022-08-16T08:34:04.876Z,97994.69
2022-08-16T08:39:27.000Z,97991.38
2022-08-16T08:44:48.776Z,98004.03
2022-08-16T08:50:11.035Z,98007.06
2022-08-16T08:55:33.810Z,98007.78
2022-08-16T09:01:01.331Z,98005.78
2022-08-16T09:06:23.435Z,98020.03
2022-08-16T09:11:52.440Z,98013.78
2022-08-16T09:17:38.247Z,98012.63
2022-08-16T09:22:59.318Z,98013.34
2022-08-16T09:28:38.098Z,98005.00
2022-08-16T09:34:03.963Z,98000.13
2022-08-16T09:39:28.725Z,98000.34
2022-08-16T09:45:12.351Z,98002.56
2022-08-16T09:50:43.664Z,98003.84
2022-08-16T09:56:16.443Z,97998.03
2022-08-16T10:01:45.853Z,97999.25
2022-08-16T10:07:14.999Z,97993.75
2022-08-16T10:12:56.986Z,98000.28
2022-08-16T10:19:02.279Z,97998.44
2022-08-16T10:24:01.191Z,97995.22
2022-08-16T10:29:23.641Z,98006.31
2022-08-16T10:34:45.384Z,98005.75
2022-08-16T10:40:28.445Z,98012.22
2022-08-16T10:46:00.197Z,98007.41
2022-08-16T10:51:33.362Z,98005.91
2022-08-16T10:56:57.115Z,98002.41
2022-08-16T11:02:58.055Z,98009.94
2022-08-16T11:08:05.543Z,97994.44
2022-08-16T11:19:13.127Z,98004.94
2022-08-16T11:24:42.169Z,97996.44
2022-08-16T11:30:09.045Z,97995.69
2022-08-16T11:41:16.704Z,97992.25
2022-08-16T11:46:44.320Z,97990.75
2022-08-16T11:52:08.482Z,97982.53
2022-08-16T11:57:30.275Z,97979.34
2022-08-16T12:02:54.004Z,97973.72
2022-08-16T12:08:16.236Z,97974.41
2022-08-16T12:13:42.820Z,97975.50
2022-08-16T12:19:10.638Z,97974.94
2022-08-16T12:24:35.341Z,97970.88
2022-08-16T12:29:58.654Z,97951.53
2022-08-16T12:35:21.863Z,97959.38
2022-08-16T12:40:49.089Z,97958.53
2022-08-16T12:46:14.939Z,97943.50
2022-08-16T12:51:58.322Z,97945.56
2022-08-16T12:57:25.430Z,97926.03
2022-08-16T13:03:01.051Z,97930.59
2022-08-16T13:08:27.549Z,97924.59
2022-08-16T13:13:54.653Z,97927.94
2022-08-16T13:19:16.785Z,97916.75
2022-08-16T13:24:38.590Z,97917.38
2022-08-16T13:30:00.338Z,97919.50
2022-08-16T13:35:23.931Z,97910.44
2022-08-16T13:40:48.628Z,97910.25
2022-08-16T13:46:12.237Z,97901.38
2022-08-16T13:51:34.107Z,97896.84
2022-08-16T13:56:56.764Z,97894.59
2022-08-16T14:02:18.543Z,97891.47
2022-08-16T14:07:42.385Z,97890.25
2022-08-16T14:13:04.303Z,97881.56
2022-08-16T14:18:27.943Z,97882.00
2022-08-16T14:23:52.888Z,97874.56
2022-08-16T14:29:14.637Z,97879.50
2022-08-16T14:34:36.968Z,97866.69
2022-08-16T14:40:00.251Z,97868.16
2022-08-16T14:45:27.592Z,97865.84
2022-08-16T14:50:49.386Z,97857.56
2022-08-16T14:56:17.562Z,97861.06
2022-08-16T15:01:58.670Z,97869.31
2022-08-16T15:07:22.701Z,97868.25
2022-08-16T15:12:45.627Z,97854.44
2022-08-16T15:18:10.065Z,97858.75
2022-08-16T15:23:34.329Z,97860.44
2022-08-16T15:28:56.102Z,97856.09
2022-08-16T15:34:21.841Z,97860.03
2022-08-16T15:39:48.426Z,97865.38
2022-08-16T15:45:35.868Z,97862.06
2022-08-16T15:51:04.249Z,97864.13
2022-08-16T15:56:27.769Z,97869.31
2022-08-16T16:01:51.377Z,97860.84
2022-08-16T16:07:13.479Z,97867.06
2022-08-16T16:12:54.228Z,97863.53
2022-08-16T16:18:17.929Z,97860.88
2022-08-16T16:23:55.123Z,97860.25
2022-08-16T16:29:20.720Z,97853.84
2022-08-16T16:34:43.481Z,97867.06
2022-08-16T16:40:10.746Z,97859.59
2022-08-16T16:45:36.500Z,97857.94
2022-08-16T16:50:58.962Z,97867.47
2022-08-16T16:56:27.516Z,97860.84
2022-08-16T17:01:57.406Z,97867.09
2022-08-16T17:07:24.323Z,97859.44
2022-08-16T17:12:47.724Z,97862.16
2022-08-16T17:19:17.055Z,97870.00
2022-08-16T17:23:59.254Z,97867.13
2022-08-16T17:29:33.378Z,97868.97
2022-08-16T17:34:55.152Z,97870.41
2022-08-16T17:40:46.023Z,97879.28
2022-08-16T17:46:51.710Z,97863.41
2022-08-16T17:51:52.041Z,97881.13
2022-08-16T17:57:13.818Z,97877.84
2022-08-16T18:02:43.677Z,97878.69
2022-08-16T18:08:06.510Z,97880.56
2022-08-16T18:13:32.383Z,97882.41
2022-08-16T18:18:54.174Z,97875.19
2022-08-16T18:24:16.234Z,97882.41
2022-08-16T18:29:38.242Z,97887.97
2022-08-16T18:35:00.032Z,97890.25
2022-08-16T18:40:22.780Z,97903.81
2022-08-16T18:45:47.741Z,97902.75
2022-08-16T18:51:16.570Z,97894.31
2022-08-16T18:56:56.796Z,97903.34
2022-08-16T19:02:57.170Z,97915.25
2022-08-16T19:08:10.466Z,97914.81
2022-08-16T19:13:33.367Z,97925.47
2022-08-16T19:18:55.250Z,97926.66
2022-08-16T19:24:18.135Z,97932.00
2022-08-16T19:29:40.207Z,97935.22
2022-08-16T19:35:01.952Z,97954.09
2022-08-16T19:40:38.180Z,97943.97
2022-08-16T19:46:00.229Z,97953.63
2022-08-16T19:51:22.437Z,97949.06
2022-08-16T19:56:44.301Z,97943.06
2022-08-16T20:02:25.484Z,97937.25
2022-08-16T20:08:04.199Z,97952.16
2022-08-16T20:13:26.464Z,97956.00
2022-08-16T20:18:48.185Z,97947.09
2022-08-16T20:24:32.668Z,97959.56
2022-08-16T20:29:51.855Z,97957.66
2022-08-16T20:35:17.160Z,97958.44
2022-08-16T20:40:39.898Z,97966.06
2022-08-16T20:46:01.642Z,97965.16
2022-08-16T20:51:24.844Z,97963.53
2022-08-16T20:56:46.714Z,97972.94
2022-08-16T21:02:11.809Z,97964.94
2022-08-16T21:07:33.568Z,97971.66
2022-08-16T21:12:59.284Z,97976.75
2022-08-16T21:18:21.016Z,97974.56
2022-08-16T21:23:42.844Z,97975.13
2022-08-16T21:29:04.631Z,97976.88
2022-08-16T21:34:29.441Z,97983.97
2022-08-16T21:39:51.299Z,97992.28
2022-08-16T21:45:13.923Z,97993.44
2022-08-16T21:50:38.004Z,97999.91
2022-08-16T21:56:00.473Z,98006.13
2022-08-16T22:01:23.304Z,98001.44
2022-08-16T22:06:45.542Z,97996.25
2022-08-16T22:12:08.310Z,98001.16
2022-08-16T22:17:30.049Z,98009.75
2022-08-16T22:22:52.433Z,98010.31
2022-08-16T22:28:14.698Z,98009.59
2022-08-16T22:33:36.519Z,98017.47
2022-08-16T22:39:00.350Z,98021.13
2022-08-16T22:44:22.297Z,98023.88
2022-08-16T22:49:44.064Z,98018.16
2022-08-16T22:55:06.336Z,98020.22
2022-08-16T23:00:31.035Z,98015.84
2022-08-16T23:05:56.187Z,98013.25
2022-08-16T23:11:22.413Z,98004.59
2022-08-16T23:16:46.985Z,97997.09
2022-08-16T23:22:08.729Z,97995.63
2022-08-16T23:27:30.477Z,97995.16
2022-08-16T23:32:55.191Z,97996.16
2022-08-16T23:38:37.894Z,97989.91
2022-08-16T23:44:01.781Z,97987.47
2022-08-16T23:50:00.088Z,97983.47
2022-08-16T23:55:24.447Z,97969.00
